createdAt,value
2019-02-02T00:00:20.624Z,24.40
2019-02-02T00:02:49.587Z,22.90
2019-02-02T00:05:18.188Z,22.90
2019-02-02T00:07:47.160Z,22.33
2019-02-02T00:10:15.760Z,23.63
2019-02-02T00:12:44.362Z,20.93
2019-02-02T00:15:13.309Z,24.27
2019-02-02T00:17:42.197Z,25.10
2019-02-02T00:20:11.104Z,25.13
2019-02-02T00:22:39.978Z,23.47
2019-02-02T00:25:08.573Z,22.43
2019-02-02T00:27:41.597Z,23.83
2019-02-02T00:30:11.550Z,23.40
2019-02-02T00:32:40.442Z,24.10
2019-02-02T00:35:09.436Z,23.93
2019-02-02T00:37:38.325Z,25.03
2019-02-02T00:40:12.968Z,25.63
2019-02-02T00:42:41.852Z,24.57
2019-02-02T00:45:19.790Z,24.47
2019-02-02T00:47:48.384Z,24.90
2019-02-02T00:50:17.315Z,22.77
2019-02-02T00:52:45.907Z,23.67
2019-02-02T00:55:14.543Z,22.43
2019-02-02T00:57:52.952Z,24.57
2019-02-02T01:00:12.061Z,22.90
2019-02-02T01:02:40.933Z,24.53
2019-02-02T01:05:09.567Z,25.03
2019-02-02T01:07:38.176Z,23.80
2019-02-02T01:12:45.617Z,22.57
2019-02-02T01:15:14.593Z,25.50
2019-02-02T01:17:43.581Z,26.70
2019-02-02T01:20:12.588Z,24.93
2019-02-02T01:22:41.191Z,25.83
2019-02-02T01:25:09.820Z,24.37
2019-02-02T01:27:38.420Z,24.40
2019-02-02T01:30:07.075Z,26.70
2019-02-02T01:32:35.680Z,27.47
2019-02-02T01:35:04.323Z,23.90
2019-02-02T01:37:32.901Z,25.17
2019-02-02T01:40:02.025Z,23.40
2019-02-02T01:42:30.431Z,26.20
2019-02-02T01:44:59.418Z,26.63
2019-02-02T01:47:28.309Z,25.13
2019-02-02T01:49:57.194Z,24.03
2019-02-02T01:52:25.780Z,25.30
2019-02-02T01:54:54.683Z,24.43
2019-02-02T01:57:23.275Z,25.07
2019-02-02T01:59:52.241Z,27.73
2019-02-02T02:02:21.234Z,25.60
2019-02-02T02:04:50.120Z,26.23
2019-02-02T02:07:19.047Z,26.63
2019-02-02T02:09:47.655Z,28.50
2019-02-02T02:12:16.507Z,29.20
2019-02-02T02:14:45.120Z,28.67
2019-02-02T02:17:13.711Z,29.70
2019-02-02T02:19:42.630Z,28.70
2019-02-02T02:22:11.507Z,29.27
2019-02-02T02:24:40.127Z,27.23
2019-02-02T02:27:08.722Z,27.00
2019-02-02T02:29:37.669Z,28.77
2019-02-02T02:32:06.568Z,30.47
2019-02-02T02:34:35.447Z,30.60
2019-02-02T02:37:04.037Z,31.30
2019-02-02T02:39:32.646Z,28.60
2019-02-02T02:42:01.600Z,31.43
2019-02-02T02:44:30.455Z,30.97
2019-02-02T02:46:59.383Z,30.80
2019-02-02T02:49:27.992Z,29.53
2019-02-02T02:51:56.601Z,30.70
2019-02-02T02:54:25.545Z,26.97
2019-02-02T02:56:54.163Z,27.30
2019-02-02T02:59:23.045Z,29.47
2019-02-02T03:01:51.649Z,31.37
2019-02-02T03:04:20.269Z,26.73
2019-02-02T03:06:48.866Z,31.67
2019-02-02T03:09:17.488Z,28.30
2019-02-02T03:11:46.429Z,29.20
2019-02-02T03:14:15.320Z,29.00
2019-02-02T03:16:44.037Z,27.63
2019-02-02T03:19:12.897Z,28.53
2019-02-02T03:21:43.759Z,28.60
2019-02-02T03:24:10.467Z,32.37
2019-02-02T03:26:39.090Z,31.60
2019-02-02T03:29:08.030Z,31.17
2019-02-02T03:31:36.627Z,31.97
2019-02-02T03:34:05.509Z,33.77
2019-02-02T03:36:34.127Z,31.67
2019-02-02T03:39:02.735Z,34.50
2019-02-02T03:41:31.354Z,32.10
2019-02-02T03:44:00.347Z,34.73
2019-02-02T03:46:28.965Z,32.93
2019-02-02T03:48:57.563Z,33.10
2019-02-02T03:51:26.186Z,33.83
2019-02-02T03:53:54.803Z,30.10
2019-02-02T03:56:23.426Z,30.93
2019-02-02T03:58:52.039Z,31.40
2019-02-02T04:01:20.671Z,31.63
2019-02-02T04:03:49.271Z,32.37
2019-02-02T04:06:17.897Z,29.37
2019-02-02T04:08:46.778Z,35.03
2019-02-02T04:11:15.657Z,36.97
2019-02-02T04:13:44.258Z,35.70
2019-02-02T04:16:13.136Z,34.37
2019-02-02T04:18:42.046Z,34.50
2019-02-02T04:21:10.678Z,29.20
2019-02-02T04:23:39.556Z,30.90
2019-02-02T04:26:08.486Z,31.57
2019-02-02T04:28:37.091Z,32.93
2019-02-02T04:31:05.722Z,34.93
2019-02-02T04:33:34.336Z,34.17
2019-02-02T04:36:02.942Z,31.77
2019-02-02T04:38:31.905Z,32.13
2019-02-02T04:41:00.633Z,32.60
2019-02-02T04:43:29.243Z,34.27
2019-02-02T04:45:58.157Z,37.27
2019-02-02T04:48:26.765Z,34.20
2019-02-02T04:50:55.402Z,36.93
2019-02-02T04:53:24.316Z,35.50
2019-02-02T04:55:52.925Z,35.67
2019-02-02T04:58:21.535Z,36.07
2019-02-02T05:00:50.174Z,38.10
2019-02-02T05:03:18.806Z,36.43
2019-02-02T05:05:47.443Z,33.67
2019-02-02T05:08:16.428Z,35.60
2019-02-02T05:10:45.043Z,34.10
2019-02-02T05:13:13.999Z,35.53
2019-02-02T05:15:42.981Z,37.07
2019-02-02T05:18:11.584Z,34.07
2019-02-02T05:20:40.216Z,33.60
2019-02-02T05:23:08.817Z,33.77
2019-02-02T05:25:37.458Z,36.73
2019-02-02T05:28:06.394Z,38.03
2019-02-02T05:30:35.019Z,35.77
2019-02-02T05:33:03.970Z,39.03
2019-02-02T05:35:32.859Z,36.77
2019-02-02T05:38:01.853Z,36.63
2019-02-02T05:40:30.473Z,37.80
2019-02-02T05:42:59.429Z,37.90
2019-02-02T05:45:28.043Z,36.27
2019-02-02T05:47:56.652Z,38.20
2019-02-02T05:50:25.574Z,39.10
2019-02-02T05:52:54.194Z,39.37
2019-02-02T05:55:22.820Z,58.43
2019-02-02T05:57:51.441Z,41.93
2019-02-02T06:00:20.069Z,43.17
2019-02-02T06:02:49.030Z,40.40
2019-02-02T06:05:17.885Z,46.27
2019-02-02T06:07:46.514Z,47.30
2019-02-02T06:10:15.138Z,47.87
2019-02-02T06:12:44.042Z,46.53
2019-02-02T06:15:12.675Z,43.17
2019-02-02T06:17:41.284Z,45.83
2019-02-02T06:20:09.930Z,43.43
2019-02-02T06:22:38.537Z,44.60
2019-02-02T06:25:07.166Z,39.77
2019-02-02T06:27:35.788Z,43.17
2019-02-02T06:30:10.947Z,42.83
2019-02-02T06:32:39.861Z,45.33
2019-02-02T06:35:08.891Z,46.27
2019-02-02T06:37:37.460Z,47.43
2019-02-02T06:40:06.096Z,42.20
2019-02-02T06:42:34.742Z,47.63
2019-02-02T06:45:03.366Z,49.10
2019-02-02T06:47:31.975Z,47.30
2019-02-02T06:50:00.585Z,54.63
2019-02-02T06:52:29.208Z,51.13
2019-02-02T06:54:57.798Z,48.10
2019-02-02T06:57:26.708Z,50.30
2019-02-02T06:59:55.561Z,47.23
2019-02-02T07:02:24.207Z,47.10
2019-02-02T07:04:52.806Z,52.57
2019-02-02T07:07:21.423Z,59.70
2019-02-02T07:09:50.318Z,51.77
2019-02-02T07:12:18.937Z,51.47
2019-02-02T07:14:47.535Z,44.80
2019-02-02T07:17:16.158Z,48.20
2019-02-02T07:19:44.779Z,51.03
2019-02-02T07:22:13.399Z,42.53
2019-02-02T07:24:42.326Z,42.67
2019-02-02T07:27:10.961Z,44.60
2019-02-02T07:29:39.575Z,46.33
2019-02-02T07:32:08.211Z,44.17
2019-02-02T07:34:37.067Z,44.10
2019-02-02T07:37:05.667Z,44.93
2019-02-02T07:39:34.271Z,44.73
2019-02-02T07:42:02.892Z,46.70
2019-02-02T07:44:31.802Z,45.40
2019-02-02T07:47:00.682Z,46.33
2019-02-02T07:49:29.304Z,47.00
2019-02-02T07:51:57.939Z,46.57
2019-02-02T07:54:26.840Z,43.87
2019-02-02T07:56:55.721Z,45.33
2019-02-02T07:59:24.610Z,46.93
2019-02-02T08:01:53.234Z,45.90
2019-02-02T08:04:22.187Z,46.17
2019-02-02T08:06:51.074Z,45.27
2019-02-02T08:09:20.068Z,46.70
2019-02-02T08:11:48.692Z,43.10
2019-02-02T08:14:17.641Z,52.20
2019-02-02T08:16:46.256Z,53.07
2019-02-02T08:19:15.221Z,49.23
2019-02-02T08:21:44.207Z,44.57
2019-02-02T08:24:13.192Z,43.70
2019-02-02T08:26:41.935Z,44.73
2019-02-02T08:29:10.427Z,49.00
2019-02-02T08:31:39.067Z,46.93
2019-02-02T08:34:07.695Z,47.53
2019-02-02T08:36:36.308Z,48.23
2019-02-02T08:39:05.301Z,47.13
2019-02-02T08:41:33.896Z,48.73
2019-02-02T08:44:02.856Z,49.60
2019-02-02T08:46:31.381Z,45.80
2019-02-02T08:49:00.080Z,47.83
2019-02-02T08:51:29.024Z,48.57
2019-02-02T08:53:57.924Z,48.07
2019-02-02T08:56:27.058Z,46.27
2019-02-02T08:58:55.910Z,48.20
2019-02-02T09:01:24.531Z,47.83
2019-02-02T09:03:53.174Z,46.90
2019-02-02T09:06:22.237Z,50.00
2019-02-02T09:08:50.772Z,45.23
2019-02-02T09:11:19.632Z,46.40
2019-02-02T09:13:48.614Z,47.93
2019-02-02T09:16:17.501Z,48.53
2019-02-02T09:18:46.131Z,49.87
2019-02-02T09:21:15.190Z,47.97
2019-02-02T09:23:43.864Z,46.90
2019-02-02T09:26:12.472Z,46.47
2019-02-02T09:28:41.091Z,52.23
2019-02-02T09:31:15.936Z,51.00
2019-02-02T09:33:38.346Z,48.13
2019-02-02T09:36:06.956Z,50.03
2019-02-02T09:38:35.875Z,50.23
2019-02-02T09:41:04.491Z,49.33
2019-02-02T09:43:33.108Z,51.00
2019-02-02T09:46:04.614Z,52.63
2019-02-02T09:48:30.702Z,51.50
2019-02-02T09:50:59.312Z,46.50
2019-02-02T09:53:27.966Z,56.77
2019-02-02T09:55:56.589Z,52.20
2019-02-02T09:58:25.275Z,46.23
2019-02-02T10:00:53.876Z,47.67
2019-02-02T10:03:22.502Z,51.27
2019-02-02T10:05:51.109Z,50.07
2019-02-02T10:08:19.994Z,50.57
2019-02-02T10:10:48.608Z,48.00
2019-02-02T10:13:17.236Z,47.37
2019-02-02T10:15:46.225Z,49.17
2019-02-02T10:18:14.823Z,50.23
2019-02-02T10:20:43.440Z,48.23
2019-02-02T10:23:12.389Z,47.23
2019-02-02T10:25:41.363Z,47.13
2019-02-02T10:28:10.360Z,43.17
2019-02-02T10:30:38.989Z,42.60
2019-02-02T10:33:07.653Z,48.07
2019-02-02T10:35:36.624Z,51.83
2019-02-02T10:38:05.266Z,49.10
2019-02-02T10:40:33.898Z,49.17
2019-02-02T10:43:02.516Z,50.80
2019-02-02T10:45:31.165Z,50.67
2019-02-02T10:48:00.148Z,54.40
2019-02-02T10:50:29.137Z,52.00
2019-02-02T10:52:57.760Z,51.63
2019-02-02T10:55:26.373Z,50.43
2019-02-02T10:57:54.999Z,48.57
2019-02-02T11:00:23.627Z,52.80
2019-02-02T11:02:52.519Z,49.13
2019-02-02T11:05:21.540Z,52.90
2019-02-02T11:07:50.280Z,53.17
2019-02-02T11:10:22.299Z,49.80
2019-02-02T11:12:50.898Z,52.90
2019-02-02T11:17:58.177Z,53.37
2019-02-02T11:20:30.297Z,55.97
2019-02-02T11:22:59.255Z,58.87
2019-02-02T11:25:27.946Z,56.63
2019-02-02T11:27:57.022Z,56.53
2019-02-02T11:30:25.891Z,56.87
2019-02-02T11:32:54.883Z,52.87
2019-02-02T11:35:23.570Z,53.37
2019-02-02T11:37:52.250Z,55.53
2019-02-02T11:40:21.242Z,56.87
2019-02-02T11:42:49.846Z,59.27
2019-02-02T11:45:18.548Z,59.80
2019-02-02T11:47:47.084Z,55.83
2019-02-02T11:50:15.858Z,56.53
2019-02-02T11:52:44.405Z,57.03
2019-02-02T11:55:13.084Z,58.30
2019-02-02T11:57:41.766Z,57.80
2019-02-02T12:02:51.481Z,57.03
2019-02-02T12:05:20.492Z,57.83
2019-02-02T12:07:49.235Z,58.73
2019-02-02T12:13:02.687Z,56.33
2019-02-02T12:15:32.920Z,57.60
2019-02-02T12:18:01.680Z,53.57
2019-02-02T12:20:33.148Z,58.40
2019-02-02T12:22:59.798Z,58.70
2019-02-02T12:25:28.546Z,54.03
2019-02-02T12:27:57.232Z,56.17
2019-02-02T12:30:31.867Z,56.97
2019-02-02T12:33:03.016Z,53.63
2019-02-02T12:35:29.186Z,55.30
2019-02-02T12:37:57.931Z,58.83
2019-02-02T12:40:26.654Z,56.67
2019-02-02T12:42:55.281Z,56.60
2019-02-02T12:48:02.020Z,54.07
2019-02-02T12:50:30.709Z,52.73
2019-02-02T12:52:59.357Z,53.77
2019-02-02T12:55:28.359Z,52.83
2019-02-02T12:57:57.233Z,54.53
2019-02-02T13:00:25.934Z,51.00
2019-02-02T13:02:54.605Z,51.80
2019-02-02T13:05:23.699Z,51.57
2019-02-02T13:07:52.344Z,51.33
2019-02-02T13:10:27.714Z,53.50
2019-02-02T13:12:56.420Z,53.43
2019-02-02T13:15:25.076Z,52.43
2019-02-02T13:17:53.694Z,54.50
2019-02-02T13:20:22.333Z,50.00
2019-02-02T13:22:50.951Z,51.13
2019-02-02T13:25:22.399Z,53.70
2019-02-02T13:27:51.076Z,50.43
2019-02-02T13:32:58.448Z,50.00
2019-02-02T13:35:27.100Z,54.37
2019-02-02T13:37:55.733Z,54.93
2019-02-02T13:40:24.398Z,56.07
2019-02-02T13:42:53.222Z,53.33
2019-02-02T13:45:22.213Z,52.90
2019-02-02T13:47:50.843Z,52.40
2019-02-02T13:50:19.653Z,52.87
2019-02-02T13:52:48.334Z,51.43
2019-02-02T13:55:17.039Z,52.23
2019-02-02T13:57:45.953Z,51.53
2019-02-02T14:03:02.488Z,51.20
2019-02-02T14:05:21.918Z,50.97
2019-02-02T14:07:50.798Z,51.77
2019-02-02T14:10:19.841Z,53.53
2019-02-02T14:12:48.490Z,50.90
2019-02-02T14:15:17.469Z,49.23
2019-02-02T14:17:46.197Z,51.53
2019-02-02T14:20:14.903Z,52.30
2019-02-02T14:22:43.933Z,53.03
2019-02-02T14:25:16.187Z,53.50
2019-02-02T14:27:44.906Z,51.30
2019-02-02T14:33:00.870Z,52.80
2019-02-02T14:35:29.588Z,48.33
2019-02-02T14:37:58.451Z,50.73
2019-02-02T14:40:27.546Z,52.33
2019-02-02T14:42:56.222Z,52.63
2019-02-02T14:45:27.286Z,53.10
2019-02-02T14:47:55.888Z,51.10
2019-02-02T14:50:22.995Z,50.70
2019-02-02T14:52:51.632Z,54.23
2019-02-02T14:55:23.431Z,49.87
2019-02-02T14:57:52.048Z,54.33
2019-02-02T15:00:20.708Z,52.87
2019-02-02T15:02:49.334Z,51.00
2019-02-02T15:05:17.986Z,53.20
2019-02-02T15:07:46.639Z,54.07
2019-02-02T15:10:15.286Z,54.30
2019-02-02T15:12:44.227Z,54.70
2019-02-02T15:17:51.201Z,52.93
2019-02-02T15:20:22.323Z,54.30
2019-02-02T15:22:49.039Z,54.73
2019-02-02T15:25:17.986Z,52.50
2019-02-02T15:27:46.607Z,54.27
2019-02-02T15:30:24.575Z,54.73
2019-02-02T15:32:53.213Z,54.23
2019-02-02T15:35:21.854Z,52.40
2019-02-02T15:37:50.468Z,50.07
2019-02-02T15:40:19.101Z,53.23
2019-02-02T15:42:47.991Z,53.43
2019-02-02T15:45:22.384Z,54.47
2019-02-02T15:47:51.298Z,53.93
2019-02-02T15:50:19.999Z,53.47
2019-02-02T15:52:48.635Z,54.20
2019-02-02T15:55:17.291Z,52.43
2019-02-02T15:57:46.241Z,51.07
2019-02-02T16:03:05.838Z,56.83
2019-02-02T16:05:34.823Z,54.47
2019-02-02T16:08:06.463Z,56.87
2019-02-02T16:10:35.132Z,53.93
2019-02-02T16:13:03.792Z,53.13
2019-02-02T16:15:34.243Z,53.83
2019-02-02T16:18:01.556Z,54.40
2019-02-02T16:23:11.755Z,51.97
2019-02-02T16:25:40.672Z,53.07
2019-02-02T16:28:09.310Z,52.10
2019-02-02T16:30:37.953Z,50.17
2019-02-02T16:33:06.933Z,52.10
2019-02-02T16:35:35.927Z,54.20
2019-02-02T16:38:04.577Z,55.23
2019-02-02T16:40:33.510Z,53.50
2019-02-02T16:43:02.187Z,54.07
2019-02-02T16:48:10.095Z,52.60
2019-02-02T16:50:38.887Z,54.17
2019-02-02T16:53:07.957Z,56.07
2019-02-02T16:55:36.887Z,55.77
2019-02-02T16:58:05.829Z,53.40
2019-02-02T17:00:34.741Z,57.17
2019-02-02T17:03:03.478Z,51.30
2019-02-02T17:05:32.137Z,39.83
2019-02-02T17:08:00.862Z,49.03
2019-02-02T17:10:35.393Z,52.73
2019-02-02T17:13:04.077Z,56.30
2019-02-02T17:15:33.089Z,56.70
2019-02-02T17:18:02.079Z,55.63
2019-02-02T17:20:30.805Z,54.93
2019-02-02T17:22:59.960Z,51.13
2019-02-02T17:25:28.763Z,57.60
2019-02-02T17:27:57.448Z,55.63
2019-02-02T17:30:26.414Z,53.07
2019-02-02T17:35:34.115Z,54.03
2019-02-02T17:38:02.984Z,55.87
2019-02-02T17:40:31.716Z,56.47
2019-02-02T17:43:00.385Z,57.03
2019-02-02T17:45:29.379Z,58.13
2019-02-02T17:47:58.012Z,62.90
2019-02-02T17:50:26.688Z,57.63
2019-02-02T17:52:55.359Z,53.13
2019-02-02T17:55:24.030Z,60.50
2019-02-02T17:57:53.005Z,57.70
2019-02-02T18:03:06.090Z,58.50
2019-02-02T18:05:35.133Z,57.93
2019-02-02T18:08:04.122Z,52.53
2019-02-02T18:10:33.218Z,47.63
2019-02-02T18:13:01.968Z,46.00
2019-02-02T18:15:30.840Z,48.87
2019-02-02T18:18:02.357Z,50.60
2019-02-02T18:20:28.469Z,45.77
2019-02-02T18:22:57.293Z,47.20
2019-02-02T18:25:26.352Z,48.20
2019-02-02T18:27:55.335Z,51.63
2019-02-02T18:30:27.017Z,51.00
2019-02-02T18:32:55.697Z,48.17
2019-02-02T18:35:24.435Z,44.70
2019-02-02T18:37:53.758Z,47.33
2019-02-02T18:40:22.933Z,47.23
2019-02-02T18:42:52.053Z,46.43
2019-02-02T18:48:00.232Z,47.87
2019-02-02T18:50:29.106Z,47.77
2019-02-02T18:52:58.233Z,45.03
2019-02-02T18:58:14.605Z,42.33
2019-02-02T19:00:43.769Z,44.17
2019-02-02T19:03:13.210Z,46.87
2019-02-02T19:05:42.576Z,44.87
2019-02-02T19:08:11.561Z,43.50
2019-02-02T19:10:40.523Z,42.40
2019-02-02T19:13:09.740Z,44.33
2019-02-02T19:15:38.936Z,44.20
2019-02-02T19:18:07.967Z,43.53
2019-02-02T19:20:37.112Z,46.73
2019-02-02T19:23:06.142Z,45.03
2019-02-02T19:25:35.437Z,41.60
2019-02-02T19:28:04.606Z,43.40
2019-02-02T19:30:33.593Z,46.33
2019-02-02T19:33:03.066Z,44.87
2019-02-02T19:35:32.190Z,43.10
2019-02-02T19:38:01.291Z,47.50
2019-02-02T19:40:30.466Z,49.43
2019-02-02T19:42:59.575Z,43.10
2019-02-02T19:45:29.243Z,44.40
2019-02-02T19:47:58.617Z,44.17
2019-02-02T19:50:30.648Z,52.63
2019-02-02T19:53:00.277Z,55.93
2019-02-02T19:55:29.766Z,53.67
2019-02-02T19:57:59.162Z,50.37
2019-02-02T20:00:28.366Z,47.90
2019-02-02T20:02:57.582Z,46.87
2019-02-02T20:05:29.137Z,44.80
2019-02-02T20:07:56.087Z,39.73
2019-02-02T20:10:25.494Z,37.43
2019-02-02T20:12:54.876Z,46.13
2019-02-02T20:15:23.918Z,48.13
2019-02-02T20:17:53.145Z,46.90
2019-02-02T20:20:25.431Z,48.90
2019-02-02T20:22:54.537Z,47.00
2019-02-02T20:25:23.896Z,46.70
2019-02-02T20:27:53.083Z,43.63
2019-02-02T20:30:24.892Z,42.33
2019-02-02T20:32:54.203Z,39.97
2019-02-02T20:35:23.529Z,41.60
2019-02-02T20:37:52.756Z,44.30
2019-02-02T20:40:21.981Z,45.53
2019-02-02T20:42:51.357Z,47.77
2019-02-02T20:45:20.643Z,40.93
2019-02-02T20:47:49.954Z,43.07
2019-02-02T20:50:19.458Z,48.87
2019-02-02T20:52:49.148Z,46.13
2019-02-02T20:58:00.701Z,43.63
2019-02-02T21:00:29.950Z,40.67
2019-02-02T21:02:59.447Z,50.27
2019-02-02T21:05:31.802Z,51.47
2019-02-02T21:07:58.661Z,48.40
2019-02-02T21:10:27.845Z,50.10
2019-02-02T21:12:57.066Z,51.13
2019-02-02T21:15:26.707Z,50.97
2019-02-02T21:17:56.024Z,49.37
2019-02-02T21:20:31.418Z,51.60
2019-02-02T21:23:00.403Z,51.17
2019-02-02T21:25:29.593Z,48.87
2019-02-02T21:27:58.587Z,46.97
2019-02-02T21:30:30.294Z,43.60
2019-02-02T21:32:59.634Z,41.87
2019-02-02T21:35:28.624Z,43.80
2019-02-02T21:37:57.585Z,42.30
2019-02-02T21:40:26.439Z,43.43
2019-02-02T21:42:55.348Z,44.40
2019-02-02T21:45:24.227Z,41.77
2019-02-02T21:47:52.969Z,46.77
2019-02-02T21:50:21.677Z,41.53
2019-02-02T21:52:50.619Z,45.40
2019-02-02T21:55:19.631Z,48.93
2019-02-02T21:57:48.929Z,48.43
2019-02-02T22:03:02.897Z,43.47
2019-02-02T22:05:32.190Z,45.43
2019-02-02T22:08:01.270Z,47.13
2019-02-02T22:10:30.094Z,47.17
2019-02-02T22:12:59.363Z,48.13
2019-02-02T22:15:28.158Z,49.90
2019-02-02T22:17:57.074Z,49.20
2019-02-02T22:20:26.636Z,49.33
2019-02-02T22:22:55.533Z,50.43
2019-02-02T22:28:02.649Z,51.37
2019-02-02T22:30:31.295Z,48.77
2019-02-02T22:32:59.957Z,49.20
2019-02-02T22:35:28.881Z,49.47
2019-02-02T22:37:57.907Z,48.90
2019-02-02T22:40:26.560Z,49.60
2019-02-02T22:42:55.201Z,47.90
2019-02-02T22:45:23.885Z,55.47
2019-02-02T22:47:52.502Z,56.57
2019-02-02T22:50:23.952Z,49.13
2019-02-02T22:52:52.575Z,50.53
2019-02-02T22:55:21.213Z,48.17
2019-02-02T22:57:49.831Z,48.37
2019-02-02T23:00:33.593Z,48.47
2019-02-02T23:03:02.199Z,51.73
2019-02-02T23:08:34.411Z,48.57
2019-02-02T23:11:12.103Z,47.50
2019-02-02T23:13:59.072Z,51.20
2019-02-02T23:16:27.735Z,52.93
2019-02-02T23:18:56.688Z,52.47
2019-02-02T23:21:25.345Z,54.97
2019-02-02T23:23:53.955Z,48.57
2019-02-02T23:26:22.852Z,51.77
2019-02-02T23:28:51.459Z,51.63
2019-02-02T23:31:20.151Z,53.87
2019-02-02T23:33:48.764Z,53.40
2019-02-02T23:36:17.380Z,51.57
2019-02-02T23:38:46.257Z,57.50
2019-02-02T23:41:14.860Z,57.73
2019-02-02T23:43:43.835Z,58.57
2019-02-02T23:46:12.725Z,55.20
2019-02-02T23:48:41.334Z,58.20
2019-02-02T23:51:10.291Z,55.07
2019-02-02T23:53:38.883Z,58.60
2019-02-02T23:56:07.511Z,53.83
2019-02-02T23:58:36.122Z,55.47
